createdAt,value
2018-08-24T00:00:19.024Z,18.66
2018-08-24T00:03:23.236Z,18.60
2018-08-24T00:06:27.452Z,18.60
2018-08-24T00:09:31.652Z,18.60
2018-08-24T00:12:35.876Z,18.62
2018-08-24T00:15:40.100Z,18.59
2018-08-24T00:18:44.321Z,18.59
2018-08-24T00:21:49.031Z,18.57
2018-08-24T00:24:53.260Z,18.56
2018-08-24T00:27:57.493Z,18.56
2018-08-24T00:31:01.684Z,18.55
2018-08-24T00:34:05.920Z,18.54
2018-08-24T00:37:10.132Z,18.52
2018-08-24T00:40:14.368Z,18.51
2018-08-24T00:43:18.604Z,18.49
2018-08-24T00:46:23.481Z,18.49
2018-08-24T00:49:28.024Z,18.46
2018-08-24T00:52:32.245Z,18.45
2018-08-24T00:55:36.428Z,18.47
2018-08-24T00:58:40.845Z,18.41
2018-08-24T01:01:45.063Z,18.35
2018-08-24T01:04:49.253Z,18.29
2018-08-24T01:07:58.625Z,18.16
2018-08-24T01:11:02.808Z,18.07
2018-08-24T01:14:07.048Z,18.02
2018-08-24T01:17:16.479Z,17.95
2018-08-24T01:20:23.504Z,17.89
2018-08-24T01:23:29.967Z,17.85
2018-08-24T01:26:34.187Z,17.88
2018-08-24T01:29:39.524Z,17.85
2018-08-24T01:32:43.752Z,17.80
2018-08-24T01:35:48.675Z,17.80
2018-08-24T01:38:52.945Z,17.77
2018-08-24T01:41:57.193Z,17.72
2018-08-24T01:45:01.406Z,17.66
2018-08-24T01:48:05.761Z,17.64
2018-08-24T01:51:09.980Z,17.63
2018-08-24T01:54:14.359Z,17.62
2018-08-24T01:57:18.576Z,17.57
2018-08-24T02:00:22.788Z,17.53
2018-08-24T02:03:27.019Z,17.50
2018-08-24T02:06:31.224Z,17.45
2018-08-24T02:09:35.447Z,17.43
2018-08-24T02:12:45.149Z,17.46
2018-08-24T02:15:49.357Z,17.45
2018-08-24T02:18:58.802Z,17.37
2018-08-24T02:22:08.303Z,17.36
2018-08-24T02:25:12.513Z,17.31
2018-08-24T02:28:16.769Z,17.29
2018-08-24T02:31:21.042Z,17.26
2018-08-24T02:34:25.231Z,17.20
2018-08-24T02:37:30.860Z,17.18
2018-08-24T02:40:35.070Z,17.17
2018-08-24T02:43:39.279Z,17.15
2018-08-24T02:46:44.427Z,17.13
2018-08-24T02:49:48.635Z,17.10
2018-08-24T02:52:52.849Z,17.09
2018-08-24T02:55:57.056Z,17.05
2018-08-24T02:59:01.335Z,17.01
2018-08-24T03:02:05.578Z,16.98
2018-08-24T03:05:09.936Z,16.93
2018-08-24T03:08:14.112Z,16.89
2018-08-24T03:11:18.332Z,16.86
2018-08-24T03:14:22.562Z,16.81
2018-08-24T03:17:32.125Z,16.77
2018-08-24T03:20:36.351Z,16.71
2018-08-24T03:23:40.557Z,16.67
2018-08-24T03:26:44.799Z,16.63
2018-08-24T03:29:49.045Z,16.60
2018-08-24T03:32:53.295Z,16.57
2018-08-24T03:35:57.563Z,16.56
2018-08-24T03:39:01.879Z,16.54
2018-08-24T03:42:06.205Z,16.55
2018-08-24T03:45:10.457Z,16.54
2018-08-24T03:48:14.660Z,16.54
2018-08-24T03:51:18.856Z,16.53
2018-08-24T03:54:23.673Z,16.54
2018-08-24T03:57:27.905Z,16.45
2018-08-24T04:00:32.121Z,16.43
2018-08-24T04:03:36.329Z,16.42
2018-08-24T04:06:40.554Z,16.43
2018-08-24T04:09:44.752Z,16.39
2018-08-24T04:12:49.094Z,16.32
2018-08-24T04:15:53.240Z,16.28
2018-08-24T04:18:57.448Z,16.24
2018-08-24T04:22:01.692Z,16.25
2018-08-24T04:25:06.823Z,16.24
2018-08-24T04:28:11.052Z,16.27
2018-08-24T04:31:15.277Z,16.29
2018-08-24T04:34:19.476Z,16.31
2018-08-24T04:37:23.712Z,16.30
2018-08-24T04:40:28.148Z,16.33
2018-08-24T04:43:32.205Z,16.39
2018-08-24T04:46:36.585Z,16.44
2018-08-24T04:49:40.831Z,16.51
2018-08-24T04:52:45.040Z,16.53
2018-08-24T04:55:49.234Z,16.54
2018-08-24T04:58:53.505Z,16.54
2018-08-24T05:01:57.712Z,16.53
2018-08-24T05:05:01.939Z,16.51
2018-08-24T05:08:06.149Z,16.48
2018-08-24T05:11:10.378Z,16.45
2018-08-24T05:14:14.588Z,16.45
2018-08-24T05:17:20.581Z,16.43
2018-08-24T05:20:24.812Z,16.40
2018-08-24T05:23:29.072Z,16.40
2018-08-24T05:26:33.280Z,16.40
2018-08-24T05:29:37.503Z,16.40
2018-08-24T05:32:41.716Z,16.37
2018-08-24T05:35:46.034Z,16.40
2018-08-24T05:38:50.204Z,16.43
2018-08-24T05:41:54.409Z,16.46
2018-08-24T05:44:58.645Z,16.45
2018-08-24T05:48:02.876Z,16.45
2018-08-24T05:51:07.165Z,16.48
2018-08-24T05:54:11.393Z,16.49
2018-08-24T05:57:15.675Z,16.52
2018-08-24T06:00:23.989Z,16.51
2018-08-24T06:03:28.235Z,16.51
2018-08-24T06:06:32.476Z,16.50
2018-08-24T06:09:36.748Z,16.50
2018-08-24T06:12:40.979Z,16.50
2018-08-24T06:15:46.559Z,16.44
2018-08-24T06:18:50.817Z,16.44
2018-08-24T06:21:55.062Z,16.45
2018-08-24T06:24:59.289Z,16.45
2018-08-24T06:28:03.517Z,16.45
2018-08-24T06:31:07.729Z,16.49
2018-08-24T06:34:11.977Z,16.53
2018-08-24T06:37:16.207Z,16.54
2018-08-24T06:40:20.477Z,16.56
2018-08-24T06:43:24.788Z,16.51
2018-08-24T06:46:29.086Z,16.51
2018-08-24T06:49:33.359Z,16.56
2018-08-24T06:52:37.589Z,16.55
2018-08-24T06:55:41.878Z,16.57
2018-08-24T06:58:46.120Z,16.60
2018-08-24T07:01:50.458Z,16.59
2018-08-24T07:04:54.729Z,16.64
2018-08-24T07:07:59.022Z,16.63
2018-08-24T07:11:03.286Z,16.60
2018-08-24T07:14:07.525Z,16.60
2018-08-24T07:17:11.805Z,16.58
2018-08-24T07:20:16.057Z,16.58
2018-08-24T07:23:20.304Z,16.61
2018-08-24T07:26:24.533Z,16.67
2018-08-24T07:29:28.781Z,16.68
2018-08-24T07:32:33.037Z,16.72
2018-08-24T07:35:37.328Z,16.76
2018-08-24T07:38:41.560Z,16.76
2018-08-24T07:41:45.779Z,16.80
2018-08-24T07:44:53.640Z,16.85
2018-08-24T07:47:57.861Z,16.88
2018-08-24T07:51:02.115Z,16.96
2018-08-24T07:54:06.379Z,17.04
2018-08-24T07:57:10.738Z,17.20
2018-08-24T08:00:14.945Z,17.33
2018-08-24T08:03:19.273Z,17.47
2018-08-24T08:06:23.641Z,17.65
2018-08-24T08:09:27.946Z,17.70
2018-08-24T08:12:32.283Z,17.66
2018-08-24T08:15:36.481Z,17.62
2018-08-24T08:18:40.767Z,17.64
2018-08-24T08:21:44.941Z,17.68
2018-08-24T08:24:49.362Z,17.68
2018-08-24T08:27:53.454Z,17.59
2018-08-24T08:30:57.674Z,17.48
2018-08-24T08:34:01.886Z,17.40
2018-08-24T08:37:06.112Z,17.31
2018-08-24T08:40:10.342Z,17.27
2018-08-24T08:43:14.562Z,17.31
2018-08-24T08:46:18.837Z,17.36
2018-08-24T08:49:23.049Z,17.31
2018-08-24T08:52:27.286Z,17.11
2018-08-24T08:55:31.505Z,16.83
2018-08-24T08:58:35.765Z,16.47
2018-08-24T09:01:40.016Z,16.23
2018-08-24T09:04:44.280Z,16.17
2018-08-24T09:07:48.580Z,16.23
2018-08-24T09:10:52.821Z,16.37
2018-08-24T09:13:57.101Z,16.49
2018-08-24T09:17:05.429Z,16.56
2018-08-24T09:20:15.016Z,16.60
2018-08-24T09:23:24.562Z,16.53
2018-08-24T09:26:34.154Z,16.45
2018-08-24T09:29:38.440Z,16.37
2018-08-24T09:32:42.809Z,16.31
2018-08-24T09:35:47.000Z,16.29
2018-08-24T09:38:52.424Z,16.23
2018-08-24T09:41:58.784Z,16.15
2018-08-24T09:45:03.167Z,16.13
2018-08-24T09:48:12.693Z,16.04
2018-08-24T09:51:22.233Z,15.93
2018-08-24T09:54:26.452Z,15.79
2018-08-24T09:57:30.705Z,15.62
2018-08-24T10:00:40.232Z,15.48
2018-08-24T10:03:58.552Z,15.37
2018-08-24T10:07:07.900Z,15.33
2018-08-24T10:10:12.129Z,15.36
2018-08-24T10:13:16.379Z,15.43
2018-08-24T10:16:20.593Z,15.59
2018-08-24T10:19:24.833Z,15.79
2018-08-24T10:22:29.234Z,16.03
2018-08-24T10:25:33.457Z,16.39
2018-08-24T10:28:37.688Z,16.58
2018-08-24T10:31:41.909Z,16.71
2018-08-24T10:34:46.218Z,17.00
2018-08-24T10:37:50.465Z,17.21
2018-08-24T10:40:54.840Z,17.31
2018-08-24T10:43:58.984Z,17.30
2018-08-24T10:47:03.729Z,17.21
2018-08-24T10:50:07.954Z,17.18
2018-08-24T10:53:12.209Z,17.10
2018-08-24T10:56:16.487Z,17.24
2018-08-24T10:59:20.679Z,17.51
2018-08-24T11:02:24.897Z,17.86
2018-08-24T11:05:29.102Z,18.20
2018-08-24T11:08:33.328Z,18.48
2018-08-24T11:11:37.565Z,18.61
2018-08-24T11:14:41.785Z,18.64
2018-08-24T11:17:51.316Z,18.65
2018-08-24T11:20:55.512Z,18.57
2018-08-24T11:23:59.746Z,18.62
2018-08-24T11:27:03.988Z,18.93
2018-08-24T11:30:08.270Z,18.99
2018-08-24T11:33:12.492Z,18.89
2018-08-24T11:36:16.765Z,18.80
2018-08-24T11:39:20.967Z,18.76
2018-08-24T11:42:25.234Z,18.90
2018-08-24T11:45:29.496Z,18.94
2018-08-24T11:48:33.763Z,18.87
2018-08-24T11:51:37.969Z,18.75
2018-08-24T11:54:42.253Z,18.74
2018-08-24T11:57:46.460Z,18.80
2018-08-24T12:00:50.656Z,18.92
2018-08-24T12:03:54.882Z,19.06
2018-08-24T12:06:59.141Z,19.09
2018-08-24T12:10:03.405Z,19.10
2018-08-24T12:13:07.669Z,19.20
2018-08-24T12:16:11.880Z,19.17
2018-08-24T12:19:16.134Z,18.88
2018-08-24T12:22:20.410Z,18.97
2018-08-24T12:25:24.643Z,19.14
2018-08-24T12:28:28.888Z,19.42
2018-08-24T12:31:33.137Z,19.31
2018-08-24T12:34:37.418Z,19.08
2018-08-24T12:37:43.665Z,18.87
2018-08-24T12:40:47.911Z,18.75
2018-08-24T12:43:52.110Z,18.75
2018-08-24T12:46:56.387Z,18.86
2018-08-24T12:50:00.659Z,18.94
2018-08-24T12:53:04.872Z,19.10
2018-08-24T12:56:13.182Z,19.27
2018-08-24T12:59:17.396Z,19.41
2018-08-24T13:02:21.602Z,19.55
2018-08-24T13:05:25.806Z,19.51
2018-08-24T13:08:30.067Z,19.32
2018-08-24T13:11:34.302Z,19.11
2018-08-24T13:14:38.574Z,18.95
2018-08-24T13:17:43.165Z,18.83
2018-08-24T13:20:47.490Z,18.68
2018-08-24T13:23:51.756Z,18.65
2018-08-24T13:26:56.000Z,18.76
2018-08-24T13:30:00.261Z,18.91
2018-08-24T13:33:04.466Z,19.05
2018-08-24T13:36:08.718Z,19.18
2018-08-24T13:39:12.926Z,19.27
2018-08-24T13:42:17.701Z,19.42
2018-08-24T13:45:21.934Z,19.48
2018-08-24T13:48:26.165Z,19.57
2018-08-24T13:51:30.397Z,19.47
2018-08-24T13:54:34.642Z,19.27
2018-08-24T13:57:38.880Z,19.08
2018-08-24T14:00:43.112Z,18.86
2018-08-24T14:03:47.376Z,18.63
2018-08-24T14:06:51.599Z,18.40
2018-08-24T14:09:55.837Z,18.00
2018-08-24T14:13:00.154Z,17.44
2018-08-24T14:16:04.353Z,17.21
2018-08-24T14:19:08.611Z,17.17
2018-08-24T14:22:12.828Z,17.19
2018-08-24T14:25:18.820Z,17.23
2018-08-24T14:28:23.032Z,17.32
2018-08-24T14:31:27.309Z,17.34
2018-08-24T14:34:31.558Z,17.38
2018-08-24T14:37:35.805Z,17.49
2018-08-24T14:40:39.999Z,17.63
2018-08-24T14:43:44.263Z,17.64
2018-08-24T14:46:48.493Z,17.59
2018-08-24T14:49:52.930Z,17.59
2018-08-24T14:52:57.244Z,17.70
2018-08-24T14:56:01.541Z,17.68
2018-08-24T14:59:05.937Z,17.73
2018-08-24T15:02:10.147Z,17.81
2018-08-24T15:05:14.387Z,17.77
2018-08-24T15:08:18.600Z,17.88
2018-08-24T15:11:22.837Z,18.08
2018-08-24T15:14:27.086Z,18.28
2018-08-24T15:17:32.289Z,18.47
2018-08-24T15:20:36.542Z,18.54
2018-08-24T15:23:40.803Z,18.55
2018-08-24T15:26:45.025Z,18.68
2018-08-24T15:29:49.414Z,18.77
2018-08-24T15:32:53.681Z,18.90
2018-08-24T15:35:58.417Z,18.93
2018-08-24T15:39:02.609Z,18.93
2018-08-24T15:42:07.179Z,18.94
2018-08-24T15:45:11.430Z,18.96
2018-08-24T15:48:15.650Z,19.00
2018-08-24T15:51:19.909Z,18.97
2018-08-24T15:54:24.131Z,19.07
2018-08-24T15:57:28.369Z,19.14
2018-08-24T16:00:32.625Z,19.06
2018-08-24T16:03:36.868Z,18.96
2018-08-24T16:06:41.129Z,19.09
2018-08-24T16:09:45.334Z,19.11
2018-08-24T16:12:49.561Z,18.95
2018-08-24T16:15:53.769Z,18.61
2018-08-24T16:18:58.013Z,18.28
2018-08-24T16:22:02.287Z,18.21
2018-08-24T16:25:06.492Z,18.18
2018-08-24T16:28:10.725Z,18.16
2018-08-24T16:31:14.982Z,18.10
2018-08-24T16:34:19.220Z,17.98
2018-08-24T16:37:23.457Z,17.83
2018-08-24T16:40:27.693Z,17.70
2018-08-24T16:43:31.921Z,17.69
2018-08-24T16:46:36.190Z,17.76
2018-08-24T16:49:40.357Z,17.72
2018-08-24T16:52:44.590Z,17.65
2018-08-24T16:55:48.785Z,17.58
2018-08-24T16:58:53.018Z,17.51
2018-08-24T17:01:57.237Z,17.48
2018-08-24T17:05:01.439Z,17.41
2018-08-24T17:08:06.310Z,17.30
2018-08-24T17:11:10.632Z,17.20
2018-08-24T17:14:14.910Z,17.12
2018-08-24T17:17:19.139Z,17.00
2018-08-24T17:20:23.355Z,16.97
2018-08-24T17:23:27.589Z,16.98
2018-08-24T17:26:31.822Z,16.92
2018-08-24T17:29:36.169Z,16.82
2018-08-24T17:32:40.421Z,16.80
2018-08-24T17:35:44.710Z,16.72
2018-08-24T17:38:48.883Z,16.70
2018-08-24T17:41:53.163Z,16.66
2018-08-24T17:44:57.361Z,16.62
2018-08-24T17:48:01.667Z,16.57
2018-08-24T17:51:05.862Z,16.49
2018-08-24T17:54:10.157Z,16.43
2018-08-24T17:57:14.344Z,16.37
2018-08-24T18:00:18.632Z,16.29
2018-08-24T18:03:30.658Z,16.22
2018-08-24T18:06:34.923Z,16.17
2018-08-24T18:09:39.311Z,16.06
2018-08-24T18:12:43.532Z,16.03
2018-08-24T18:15:48.093Z,16.00
2018-08-24T18:18:52.370Z,15.94
2018-08-24T18:21:56.613Z,15.89
2018-08-24T18:25:00.850Z,15.86
2018-08-24T18:28:05.090Z,15.86
2018-08-24T18:31:09.463Z,15.65
2018-08-24T18:34:13.695Z,15.10
2018-08-24T18:37:18.976Z,14.62
2018-08-24T18:40:23.114Z,14.29
2018-08-24T18:43:27.373Z,13.95
2018-08-24T18:46:31.617Z,13.68
2018-08-24T18:49:35.859Z,13.61
2018-08-24T18:52:40.105Z,13.57
2018-08-24T18:55:44.325Z,13.51
2018-08-24T18:58:48.573Z,13.49
2018-08-24T19:01:52.797Z,13.48
2018-08-24T19:04:57.093Z,13.49
2018-08-24T19:08:06.705Z,13.50
2018-08-24T19:11:16.185Z,13.48
2018-08-24T19:14:20.413Z,13.40
2018-08-24T19:17:29.998Z,13.32
2018-08-24T19:21:37.153Z,13.29
2018-08-24T19:24:41.395Z,13.16
2018-08-24T19:27:50.868Z,13.09
2018-08-24T19:30:55.081Z,13.06
2018-08-24T19:33:59.312Z,13.03
2018-08-24T19:37:03.554Z,13.00
2018-08-24T19:41:16.689Z,13.02
2018-08-24T19:44:20.909Z,13.01
2018-08-24T19:47:30.377Z,13.03
2018-08-24T19:50:34.625Z,13.07
2018-08-24T19:53:38.850Z,13.09
2018-08-24T19:56:43.297Z,13.08
2018-08-24T19:59:47.525Z,13.09
2018-08-24T20:02:51.777Z,13.07
2018-08-24T20:06:01.342Z,13.01
2018-08-24T20:09:15.430Z,12.96
2018-08-24T20:12:19.676Z,13.01
2018-08-24T20:15:29.154Z,13.02
2018-08-24T20:18:33.441Z,12.99
2018-08-24T20:21:37.689Z,12.95
2018-08-24T20:24:41.996Z,12.94
2018-08-24T20:27:46.345Z,12.90
2018-08-24T20:30:50.559Z,12.86
2018-08-24T20:33:54.793Z,12.83
2018-08-24T20:36:59.001Z,12.81
2018-08-24T20:40:03.360Z,12.82
2018-08-24T20:43:07.516Z,12.85
2018-08-24T20:46:11.736Z,12.79
2018-08-24T20:49:15.937Z,12.80
2018-08-24T20:52:20.206Z,12.83
2018-08-24T20:55:24.536Z,12.81
2018-08-24T20:58:28.753Z,12.78
2018-08-24T21:01:32.965Z,12.76
2018-08-24T21:04:37.152Z,12.76
2018-08-24T21:07:41.362Z,12.79
2018-08-24T21:10:45.691Z,12.78
2018-08-24T21:13:49.930Z,12.74
2018-08-24T21:16:54.301Z,12.69
2018-08-24T21:19:58.526Z,12.69
2018-08-24T21:23:02.733Z,12.64
2018-08-24T21:26:06.982Z,12.65
2018-08-24T21:29:11.237Z,12.66
2018-08-24T21:32:15.425Z,12.65
2018-08-24T21:35:21.060Z,12.68
2018-08-24T21:38:25.293Z,12.62
2018-08-24T21:41:29.527Z,12.57
2018-08-24T21:44:33.764Z,12.50
2018-08-24T21:47:38.024Z,12.49
2018-08-24T21:50:42.251Z,12.51
2018-08-24T21:53:46.460Z,12.53
2018-08-24T21:56:52.858Z,12.51
2018-08-24T21:59:57.112Z,12.51
2018-08-24T22:03:01.392Z,12.50
2018-08-24T22:06:05.771Z,12.51
2018-08-24T22:09:11.177Z,12.51
2018-08-24T22:12:15.396Z,12.49
2018-08-24T22:15:20.788Z,12.49
2018-08-24T22:18:25.353Z,12.52
2018-08-24T22:21:29.560Z,12.55
2018-08-24T22:24:33.815Z,12.52
2018-08-24T22:27:38.674Z,12.52
2018-08-24T22:30:43.233Z,12.54
2018-08-24T22:33:49.312Z,12.53
2018-08-24T22:36:54.572Z,12.56
2018-08-24T22:39:58.920Z,12.59
2018-08-24T22:43:03.152Z,12.61
2018-08-24T22:46:07.506Z,12.58
2018-08-24T22:49:11.957Z,12.59
2018-08-24T22:52:16.197Z,12.55
2018-08-24T22:55:20.461Z,12.56
2018-08-24T22:58:24.777Z,12.52
2018-08-24T23:01:28.992Z,12.49
2018-08-24T23:04:33.250Z,12.48
2018-08-24T23:07:37.449Z,12.46
2018-08-24T23:10:41.733Z,12.43
2018-08-24T23:13:46.090Z,12.46
2018-08-24T23:16:50.333Z,12.42
2018-08-24T23:19:54.543Z,12.39
2018-08-24T23:22:58.761Z,12.40
2018-08-24T23:26:02.977Z,12.39
2018-08-24T23:29:07.237Z,12.42
2018-08-24T23:32:11.747Z,12.49
2018-08-24T23:35:15.981Z,12.46
2018-08-24T23:38:20.381Z,12.43
2018-08-24T23:41:24.654Z,12.49
2018-08-24T23:44:28.997Z,12.54
2018-08-24T23:47:33.226Z,12.55
2018-08-24T23:50:37.468Z,12.63
2018-08-24T23:53:41.682Z,12.58
2018-08-24T23:56:46.155Z,12.53
2018-08-24T23:59:50.819Z,12.46
